Time;durP1;ratioP1;P1;durP2;ratioP2;P2;SDS_P1;SDS_P2;PMS_P1;PMS_P2;Temp;Humidity;BMP_temperature;BMP_pressure;BME280_temperature;BME280_humidity;BME280_pressure;Samples;Min_cycle;Max_cycle;Signal;HPM_P1;HPM_P2
2021/05/04 00:01:56;;;;;;;25.13;5.30;;;;;;;11.50;43.69;100095.00;5104144;28;20389;-61
2021/05/04 00:04:21;;;;;;;28.45;5.53;;;;;;;11.31;44.31;100056.38;5102908;28;20023;-63
2021/05/04 00:06:46;;;;;;;46.20;6.82;;;;;;;10.90;45.58;100050.63;5102920;28;20035;-63
2021/05/04 00:09:11;;;;;;;46.95;6.47;;;;;;;10.90;46.13;100039.19;5104053;28;20016;-62
2021/05/04 00:11:37;;;;;;;35.60;6.18;;;;;;;10.77;49.35;100015.50;5101483;28;20493;-63
2021/05/04 00:14:03;;;;;;;24.33;5.15;;;;;;;10.41;49.67;100054.59;5105037;28;20028;-61
2021/05/04 00:16:28;;;;;;;34.30;5.72;;;;;;;10.16;50.30;100040.63;5101724;28;20106;-62
2021/05/04 00:18:53;;;;;;;29.70;5.55;;;;;;;10.13;50.36;100030.06;5103920;28;20054;-63
2021/05/04 00:21:19;;;;;;;30.45;5.50;;;;;;;10.11;51.31;100030.09;5102818;28;20028;-63
2021/05/04 00:23:45;;;;;;;34.40;5.80;;;;;;;9.70;53.50;100025.94;5102548;28;20117;-61
2021/05/04 00:26:11;;;;;;;29.45;5.05;;;;;;;9.57;52.66;100048.88;5103743;28;20102;-64
2021/05/04 00:28:37;;;;;;;21.95;4.97;;;;;;;9.50;55.25;100030.44;5101348;28;20040;-61
2021/05/04 00:31:03;;;;;;;22.42;5.13;;;;;;;8.83;62.06;99977.03;5104940;28;20027;-62
2021/05/04 00:33:28;;;;;;;19.73;4.65;;;;;;;8.57;63.72;100038.53;5101413;28;20031;-61
2021/05/04 00:35:55;;;;;;;19.58;5.45;;;;;;;8.49;65.04;100077.16;5103499;28;20024;-63
2021/05/04 00:38:21;;;;;;;24.27;5.65;;;;;;;8.07;69.96;100034.06;5102586;28;20038;-61
2021/05/04 00:40:46;;;;;;;21.45;5.20;;;;;;;8.06;67.74;100025.31;5102319;28;20028;-63
2021/05/04 00:43:11;;;;;;;24.85;6.03;;;;;;;7.94;73.71;100015.63;5103940;28;20054;-62
2021/05/04 00:45:37;;;;;;;21.83;5.80;;;;;;;7.84;73.65;100004.19;5101237;28;20070;-63
2021/05/04 00:48:03;;;;;;;24.95;6.30;;;;;;;7.62;76.10;99994.50;5103587;28;20031;-63
2021/05/04 00:50:28;;;;;;;20.20;6.13;;;;;;;7.57;78.59;100019.91;5101497;28;20077;-63
2021/05/04 00:52:53;;;;;;;21.48;6.28;;;;;;;7.40;78.85;100004.09;5104460;28;20069;-63
2021/05/04 00:55:21;;;;;;;21.85;7.28;;;;;;;7.38;78.83;100003.19;5106646;28;20028;-63
2021/05/04 00:57:48;;;;;;;22.35;7.43;;;;;;;7.38;82.17;99992.66;5106622;28;20370;-63
2021/05/04 01:00:14;;;;;;;21.48;6.07;;;;;;;7.26;82.51;100009.28;5107591;28;20019;-63
2021/05/04 01:02:40;;;;;;;20.27;7.32;;;;;;;7.26;84.39;100001.38;5105491;28;20039;-63
2021/05/04 01:05:08;;;;;;;22.55;7.68;;;;;;;7.03;88.89;99981.13;5108502;28;20020;-63
2021/05/04 01:07:33;;;;;;;19.92;7.80;;;;;;;7.07;90.70;99979.41;5100825;28;20526;-63
2021/05/04 01:09:59;;;;;;;21.48;8.88;;;;;;;6.97;90.48;99967.94;5107844;28;20015;-63
2021/05/04 01:12:24;;;;;;;23.63;8.95;;;;;;;7.00;94.26;99967.97;5105641;28;20020;-63
2021/05/04 01:14:50;;;;;;;21.92;9.43;;;;;;;6.94;95.36;99958.28;5106374;28;20028;-63
2021/05/04 01:17:15;;;;;;;22.00;8.85;;;;;;;7.00;92.77;99952.19;5106838;27;20023;-63
2021/05/04 01:19:41;;;;;;;23.88;9.80;;;;;;;6.97;97.24;99939.06;5105157;28;20027;-63
2021/05/04 01:22:06;;;;;;;23.77;10.32;;;;;;;6.95;97.33;99920.66;5108041;28;20084;-63
2021/05/04 01:24:32;;;;;;;23.73;9.65;;;;;;;6.90;99.21;99930.28;5100341;28;20031;-63
2021/05/04 01:27:00;;;;;;;21.67;8.70;;;;;;;6.88;97.53;99929.38;5107261;28;20114;-63
2021/05/04 01:29:27;;;;;;;22.55;9.90;;;;;;;6.79;100.00;99931.97;5105152;28;20106;-63
2021/05/04 01:31:53;;;;;;;22.50;9.80;;;;;;;6.85;100.00;99934.63;5106398;28;20032;-63
2021/05/04 01:34:19;;;;;;;23.05;10.30;;;;;;;6.81;100.00;99919.69;5106167;28;20524;-63
2021/05/04 01:36:44;;;;;;;24.83;11.05;;;;;;;6.72;100.00;99912.66;5105249;28;20032;-63
2021/05/04 01:39:10;;;;;;;24.20;11.07;;;;;;;6.71;100.00;99916.16;5107046;28;20110;-62
2021/05/04 01:41:37;;;;;;;23.52;9.95;;;;;;;6.68;100.00;99912.63;5104177;28;20035;-62
2021/05/04 01:44:04;;;;;;;23.52;10.57;;;;;;;6.79;100.00;99916.19;5099862;28;20513;-62
2021/05/04 01:46:32;;;;;;;23.65;10.18;;;;;;;6.77;100.00;99903.06;5107145;28;20534;-63
2021/05/04 01:49:07;;;;;;;22.17;9.80;;;;;;;6.77;100.00;99889.03;5104871;28;20020;-62
2021/05/04 01:51:34;;;;;;;24.05;11.13;;;;;;;6.66;100.00;99891.63;5099833;28;20031;-62
2021/05/04 01:54:00;;;;;;;22.55;9.65;;;;;;;6.72;100.00;99891.63;5106940;28;20378;-62
2021/05/04 01:56:26;;;;;;;23.45;10.98;;;;;;;6.63;100.00;99887.22;5104878;28;20084;-66
2021/05/04 01:58:55;;;;;;;24.88;11.68;;;;;;;6.61;100.00;99878.47;5105635;28;20024;-63
2021/05/04 02:01:20;;;;;;;22.55;10.15;;;;;;;6.68;100.00;99847.84;5105487;28;20024;-63
2021/05/04 02:03:45;;;;;;;27.30;9.05;;;;;;;6.71;100.00;99915.28;5104829;28;20455;-64
2021/05/04 02:06:11;;;;;;;24.60;11.38;;;;;;;6.49;100.00;99894.13;5106764;27;20362;-62
2021/05/04 02:08:36;;;;;;;24.05;10.25;;;;;;;6.43;100.00;99880.97;5103601;28;20024;-63
2021/05/04 02:11:02;;;;;;;24.77;10.55;;;;;;;6.49;100.00;99861.75;5107062;28;20060;-64
2021/05/04 02:13:28;;;;;;;23.80;10.07;;;;;;;6.37;100.00;99866.06;5104311;28;20538;-63
2021/05/04 02:15:53;;;;;;;23.92;10.45;;;;;;;6.50;100.00;99822.38;5105818;28;20024;-61
2021/05/04 02:18:19;;;;;;;23.83;10.13;;;;;;;6.44;100.00;99841.59;5105262;28;20119;-61
2021/05/04 02:20:44;;;;;;;22.27;9.80;;;;;;;6.55;100.00;99861.78;5102994;28;20036;-64
2021/05/04 02:23:10;;;;;;;23.70;10.48;;;;;;;6.51;100.00;99825.88;5106426;28;20073;-63
2021/05/04 02:25:35;;;;;;;23.05;10.32;;;;;;;6.62;100.00;99813.69;5103230;28;20052;-61
2021/05/04 02:28:03;;;;;;;22.98;10.73;;;;;;;6.51;100.00;99803.16;5106450;28;20035;-64
2021/05/04 02:30:32;;;;;;;24.08;10.80;;;;;;;6.59;100.00;99805.78;5103818;28;20020;-64
2021/05/04 02:32:57;;;;;;;24.73;11.23;;;;;;;6.52;100.00;99804.88;5106222;28;20070;-64
2021/05/04 02:35:23;;;;;;;23.55;9.80;;;;;;;6.59;100.00;99788.28;5104302;28;20463;-64
2021/05/04 02:37:48;;;;;;;22.52;8.50;;;;;;;6.60;100.00;99792.66;5104452;28;20427;-64
2021/05/04 02:40:14;;;;;;;25.77;11.20;;;;;;;6.57;100.00;99787.41;5105754;27;20517;-64
2021/05/04 02:42:39;;;;;;;23.52;10.27;;;;;;;6.58;100.00;99781.28;5103357;28;20485;-65
2021/05/04 02:45:05;;;;;;;24.85;9.82;;;;;;;6.56;100.00;99769.88;5106826;28;20088;-65
2021/05/04 02:47:30;;;;;;;23.13;10.35;;;;;;;6.58;100.00;99768.16;5103427;28;20032;-65
2021/05/04 02:49:56;;;;;;;23.23;9.13;;;;;;;6.58;100.00;99736.66;5105437;28;20424;-65
2021/05/04 02:52:21;;;;;;;23.10;10.15;;;;;;;6.73;100.00;99742.81;5104827;27;20501;-65
2021/05/04 02:54:47;;;;;;;21.23;9.50;;;;;;;6.80;100.00;99762.94;5103931;28;20027;-65
2021/05/04 02:57:12;;;;;;;22.38;9.38;;;;;;;6.80;100.00;99762.94;5105424;28;20020;-63
2021/05/04 02:59:37;;;;;;;20.88;8.68;;;;;;;6.86;100.00;99736.72;5102937;28;20074;-64
2021/05/04 03:02:03;;;;;;;21.08;8.10;;;;;;;6.91;99.74;99723.56;5098289;28;20360;-65
2021/05/04 03:04:28;;;;;;;23.17;8.80;;;;;;;6.92;100.00;99741.09;5105383;28;20019;-65
2021/05/04 03:06:53;;;;;;;21.20;7.78;;;;;;;6.93;98.20;99722.72;5104186;28;20019;-65
2021/05/04 03:09:19;;;;;;;20.55;8.13;;;;;;;6.90;98.81;99717.47;5103819;28;20558;-61
2021/05/04 03:11:44;;;;;;;22.20;8.38;;;;;;;6.85;100.00;99687.66;5104945;28;20023;-62
2021/05/04 03:14:09;;;;;;;21.88;8.45;;;;;;;6.96;97.39;99672.78;5102861;28;20098;-61
2021/05/04 03:16:35;;;;;;;20.98;8.43;;;;;;;6.94;99.05;99692.91;5105405;28;20436;-61
2021/05/04 03:19:00;;;;;;;20.15;7.78;;;;;;;6.96;97.63;99685.94;5102983;28;20383;-62
2021/05/04 03:21:27;;;;;;;22.90;8.85;;;;;;;6.87;100.00;99680.66;5104880;28;20141;-62
2021/05/04 03:23:53;;;;;;;21.35;8.95;;;;;;;6.82;100.00;99682.41;5103578;28;20027;-61
2021/05/04 03:26:18;;;;;;;21.27;8.90;;;;;;;6.80;100.00;99684.13;5103571;28;20044;-61
2021/05/04 03:28:43;;;;;;;23.63;10.00;;;;;;;6.76;100.00;99664.88;5104668;28;20027;-61
2021/05/04 03:31:09;;;;;;;22.33;9.40;;;;;;;6.76;100.00;99672.75;5102344;28;20047;-62
2021/05/04 03:33:34;;;;;;;24.70;8.60;;;;;;;6.82;100.00;99669.28;5105597;28;20020;-63
2021/05/04 03:35:59;;;;;;;23.52;9.55;;;;;;;6.75;100.00;99681.50;5102509;28;20107;-63
2021/05/04 03:38:25;;;;;;;22.00;7.88;;;;;;;6.82;100.00;99677.16;5104380;28;20035;-61
2021/05/04 03:40:51;;;;;;;21.60;8.20;;;;;;;6.96;99.77;99654.41;5103984;28;20514;-63
2021/05/04 03:43:16;;;;;;;21.95;8.20;;;;;;;7.04;100.00;99640.38;5102908;28;20471;-61
2021/05/04 03:45:41;;;;;;;22.05;8.60;;;;;;;7.06;98.15;99634.25;5104574;28;20026;-61
2021/05/04 03:48:07;;;;;;;21.65;7.53;;;;;;;7.20;93.46;99628.97;5101924;28;20097;-63
2021/05/04 03:50:32;;;;;;;20.42;7.63;;;;;;;7.19;93.14;99623.72;5104988;28;20031;-63
2021/05/04 03:53:00;;;;;;;21.00;7.55;;;;;;;7.20;92.60;99621.09;5102290;28;20039;-63
2021/05/04 03:55:25;;;;;;;19.98;7.35;;;;;;;7.27;93.22;99611.44;5104396;28;20027;-63
2021/05/04 03:57:51;;;;;;;20.38;7.85;;;;;;;7.10;97.70;99621.97;5103097;28;20026;-66
2021/05/04 04:00:17;;;;;;;20.15;7.47;;;;;;;6.97;98.77;99619.38;5102767;28;20019;-63
2021/05/04 04:02:42;;;;;;;22.30;8.30;;;;;;;6.95;100.00;99612.34;5104420;28;20515;-63
2021/05/04 04:05:08;;;;;;;19.50;7.53;;;;;;;6.97;100.00;99605.34;5101668;28;20028;-63
2021/05/04 04:07:34;;;;;;;19.98;6.95;;;;;;;7.04;97.34;99587.81;5097449;28;20016;-62
2021/05/04 04:09:59;;;;;;;20.73;7.82;;;;;;;7.02;98.44;99589.56;5104294;28;20020;-63
2021/05/04 04:12:25;;;;;;;19.98;7.10;;;;;;;7.08;95.77;99579.06;5102466;28;20470;-63
2021/05/04 04:14:51;;;;;;;21.23;7.53;;;;;;;7.22;93.72;99581.66;5103260;28;20103;-64
2021/05/04 04:17:17;;;;;;;20.02;7.10;;;;;;;7.26;91.19;99580.78;5103744;28;20055;-64
2021/05/04 04:19:42;;;;;;;19.17;6.50;;;;;;;7.35;89.87;99579.88;5101977;28;20063;-63
2021/05/04 04:22:07;;;;;;;20.40;6.05;;;;;;;7.38;89.20;99611.41;5104939;28;20019;-64
2021/05/04 04:24:32;;;;;;;18.67;6.30;;;;;;;7.40;88.36;99593.91;5101537;28;20020;-64
2021/05/04 04:26:58;;;;;;;18.45;5.80;;;;;;;7.55;86.25;99583.31;5102183;28;20048;-64
2021/05/04 04:29:23;;;;;;;18.80;5.43;;;;;;;7.59;85.22;99590.31;5101578;28;20019;-64
2021/05/04 04:31:49;;;;;;;19.98;6.05;;;;;;;7.61;85.17;99578.03;5101860;28;20363;-64
2021/05/04 04:34:14;;;;;;;18.58;5.95;;;;;;;7.62;84.94;99585.03;5103072;28;20087;-64
2021/05/04 04:36:39;;;;;;;20.48;6.22;;;;;;;7.49;87.97;99593.88;5100560;28;20042;-64
2021/05/04 04:39:05;;;;;;;18.92;6.25;;;;;;;7.43;88.72;99591.25;5103845;28;20067;-64
2021/05/04 04:41:30;;;;;;;18.77;5.57;;;;;;;7.55;85.90;99578.06;5100664;28;20068;-63
2021/05/04 04:43:56;;;;;;;18.30;5.50;;;;;;;7.56;85.98;99585.06;5101019;28;20117;-64
2021/05/04 04:46:21;;;;;;;18.90;6.13;;;;;;;7.53;86.43;99592.09;5102123;28;20462;-64
2021/05/04 04:48:46;;;;;;;18.50;6.40;;;;;;;7.46;90.13;99583.34;5101209;28;20470;-64
2021/05/04 04:51:12;;;;;;;19.38;6.32;;;;;;;7.46;90.39;99572.84;5103164;28;20035;-63
2021/05/04 04:53:37;;;;;;;20.15;6.32;;;;;;;7.45;89.84;99581.59;5100343;28;20426;-63
2021/05/04 04:56:02;;;;;;;19.20;5.43;;;;;;;7.44;88.96;99587.72;5103733;28;20030;-60
2021/05/04 04:58:28;;;;;;;19.13;5.93;;;;;;;7.50;87.69;99571.97;5100982;28;20106;-61
2021/05/04 05:00:54;;;;;;;19.48;6.28;;;;;;;7.47;90.94;99585.09;5101884;28;20421;-61
2021/05/04 05:03:20;;;;;;;20.38;6.88;;;;;;;7.34;96.74;99586.91;5100665;28;20035;-63
2021/05/04 05:05:45;;;;;;;19.58;6.88;;;;;;;7.31;96.62;99590.41;5100989;28;20028;-63
2021/05/04 05:08:10;;;;;;;20.83;7.10;;;;;;;7.17;100.00;99594.81;5103157;28;20023;-64
2021/05/04 05:10:36;;;;;;;20.67;6.75;;;;;;;7.21;100.00;99595.66;5100002;28;20093;-64
2021/05/04 05:13:01;;;;;;;20.80;7.05;;;;;;;7.15;100.00;99571.16;5102788;28;20062;-63
2021/05/04 05:15:27;;;;;;;19.05;6.97;;;;;;;7.11;100.00;99587.81;5100770;28;20040;-63
2021/05/04 05:17:53;;;;;;;21.85;7.32;;;;;;;7.12;100.00;99586.03;5101568;28;20023;-63
2021/05/04 05:20:18;;;;;;;19.48;6.63;;;;;;;7.10;100.00;99569.41;5101905;28;20023;-63
2021/05/04 05:22:44;;;;;;;19.95;7.00;;;;;;;7.16;100.00;99585.16;5096879;28;20034;-62
2021/05/04 05:25:11;;;;;;;20.45;6.82;;;;;;;7.16;100.00;99572.03;5080773;28;571453;-63
2021/05/04 05:27:36;;;;;;;19.13;5.60;;;;;;;7.11;100.00;99558.91;5099878;28;20047;-65
2021/05/04 05:30:05;;;;;;;21.73;7.82;;;;;;;7.12;100.00;99575.53;5097515;28;20028;-63
2021/05/04 05:32:30;;;;;;;19.83;7.80;;;;;;;7.03;100.00;99576.41;5104172;28;20088;-63
2021/05/04 05:34:56;;;;;;;22.95;8.73;;;;;;;7.01;100.00;99561.56;5100456;28;20024;-65
2021/05/04 05:37:21;;;;;;;22.05;9.30;;;;;;;6.92;100.00;99563.31;5103752;28;20031;-63
2021/05/04 05:39:46;;;;;;;22.25;8.30;;;;;;;6.92;100.00;99559.81;5099770;28;20028;-66
2021/05/04 05:42:13;;;;;;;21.58;8.63;;;;;;;6.93;100.00;99544.06;5104275;28;20444;-65
2021/05/04 05:44:39;;;;;;;20.90;8.20;;;;;;;7.05;100.00;99542.25;5106665;28;20031;-64
2021/05/04 05:47:04;;;;;;;24.63;8.77;;;;;;;7.07;100.00;99541.38;5105440;28;20035;-63
2021/05/04 05:49:31;;;;;;;21.23;7.53;;;;;;;7.10;100.00;99527.38;5106540;28;20070;-61
2021/05/04 05:51:56;;;;;;;20.42;7.85;;;;;;;7.13;100.00;99525.59;5104806;28;20032;-61
2021/05/04 05:54:22;;;;;;;19.42;7.00;;;;;;;7.21;100.00;99532.59;5106403;28;20060;-60
2021/05/04 05:56:48;;;;;;;23.13;7.38;;;;;;;7.25;100.00;99534.31;5107147;28;20016;-63
2021/05/04 05:59:13;;;;;;;20.80;7.00;;;;;;;7.28;100.00;99515.91;5103614;28;20525;-65
2021/05/04 06:01:38;;;;;;;19.48;6.72;;;;;;;7.27;100.00;99528.19;5109017;27;20024;-62
2021/05/04 06:04:04;;;;;;;20.25;6.65;;;;;;;7.33;100.00;99512.41;5104001;28;20532;-63
2021/05/04 06:06:29;;;;;;;20.20;6.47;;;;;;;7.35;100.00;99530.78;5104867;28;20023;-62
2021/05/04 06:08:54;;;;;;;21.08;6.10;;;;;;;7.43;100.00;99538.66;5105559;28;20466;-65
2021/05/04 06:11:20;;;;;;;20.10;6.70;;;;;;;7.44;100.00;99520.25;5103579;28;20036;-61
2021/05/04 06:13:45;;;;;;;21.17;6.57;;;;;;;7.49;100.00;99526.34;5108723;28;20109;-62
2021/05/04 06:16:11;;;;;;;20.30;6.00;;;;;;;7.54;100.00;99525.47;5106287;28;20492;-62
2021/05/04 06:18:36;;;;;;;19.60;5.00;;;;;;;7.63;100.00;99510.53;5106473;28;20036;-66
2021/05/04 06:21:02;;;;;;;18.88;5.32;;;;;;;7.62;100.00;99519.28;5101696;28;20039;-61
2021/05/04 06:23:27;;;;;;;22.38;6.18;;;;;;;7.62;100.00;99519.28;5105341;28;20027;-61
2021/05/04 06:25:52;;;;;;;23.65;7.18;;;;;;;7.59;100.00;99524.56;5103688;28;20066;-61
2021/05/04 06:28:18;;;;;;;22.73;6.38;;;;;;;7.48;100.00;99535.16;5097926;28;20405;-63
2021/05/04 06:30:43;;;;;;;20.38;4.97;;;;;;;7.53;100.00;99527.22;5101050;28;20505;-61
2021/05/04 06:33:11;;;;;;;25.10;6.57;;;;;;;7.32;100.00;99531.69;5103261;28;20020;-62
2021/05/04 06:35:40;;;;;;;26.13;6.72;;;;;;;7.33;100.00;99537.81;5104139;28;20051;-61
2021/05/04 06:38:06;;;;;;;25.02;7.20;;;;;;;7.28;100.00;99537.84;5106111;28;20038;-62
2021/05/04 06:40:32;;;;;;;23.80;7.88;;;;;;;7.19;100.00;99535.22;5101975;28;20023;-62
2021/05/04 06:42:59;;;;;;;26.20;7.90;;;;;;;7.13;100.00;99551.00;5103424;28;20074;-62
2021/05/04 06:45:25;;;;;;;26.80;8.25;;;;;;;7.05;100.00;99532.63;5106165;28;20511;-62
2021/05/04 06:47:50;;;;;;;26.13;7.97;;;;;;;7.04;100.00;99530.88;5096886;28;20024;-63
2021/05/04 06:50:15;;;;;;;23.50;7.20;;;;;;;7.00;100.00;99550.16;5106881;28;20489;-63
2021/05/04 06:52:41;;;;;;;24.27;7.43;;;;;;;7.09;100.00;99538.75;5100316;28;20036;-64
2021/05/04 06:55:07;;;;;;;26.73;8.98;;;;;;;7.07;100.00;99549.25;5098943;28;20036;-66
2021/05/04 06:57:33;;;;;;;25.48;8.02;;;;;;;7.02;100.00;99524.75;5101124;28;20020;-64
2021/05/04 06:59:58;;;;;;;24.02;8.20;;;;;;;7.08;100.00;99531.75;5100398;28;20088;-63
2021/05/04 07:02:23;;;;;;;25.45;8.55;;;;;;;7.11;100.00;99531.75;5099220;28;20027;-63
2021/05/04 07:04:49;;;;;;;24.52;7.75;;;;;;;7.11;100.00;99540.50;5101799;28;20332;-63
2021/05/04 07:07:14;;;;;;;25.25;7.25;;;;;;;7.15;100.00;99539.63;5098159;28;20709;-65
2021/05/04 07:09:39;;;;;;;23.55;7.68;;;;;;;7.17;100.00;99530.88;5099485;28;20051;-63
2021/05/04 07:12:05;;;;;;;27.35;7.88;;;;;;;7.22;100.00;99527.31;5100430;28;20500;-62
2021/05/04 07:14:32;;;;;;;24.70;8.30;;;;;;;7.25;100.00;99514.19;5093955;28;20028;-63
2021/05/04 07:17:00;;;;;;;26.67;8.43;;;;;;;7.26;100.00;99515.91;5092469;28;20061;-62
2021/05/04 07:19:25;;;;;;;26.85;7.90;;;;;;;7.37;100.00;99508.00;5095034;28;20024;-63
2021/05/04 07:21:51;;;;;;;25.42;8.13;;;;;;;7.35;100.00;99524.66;5093639;28;20474;-68
2021/05/04 07:24:16;;;;;;;28.42;9.00;;;;;;;7.43;100.00;99521.13;5093364;28;20031;-66
2021/05/04 07:26:41;;;;;;;24.90;7.28;;;;;;;7.50;100.00;99503.59;5095572;28;20051;-63
2021/05/04 07:29:07;;;;;;;26.20;7.40;;;;;;;7.54;100.00;99522.84;5094614;28;20012;-67
2021/05/04 07:31:34;;;;;;;25.60;6.90;;;;;;;7.60;100.00;99502.66;5092666;28;20016;-68
2021/05/04 07:33:59;;;;;;;26.77;7.88;;;;;;;7.71;100.00;99507.00;5093546;28;20495;-66
2021/05/04 07:36:26;;;;;;;27.02;7.38;;;;;;;7.76;100.00;99511.34;5095309;28;20020;-67
2021/05/04 07:38:51;;;;;;;26.05;6.90;;;;;;;7.81;100.00;99520.06;5091079;28;20352;-65
2021/05/04 07:41:17;;;;;;;26.77;7.53;;;;;;;7.99;100.00;99540.16;5094156;28;20020;-66
2021/05/04 07:43:42;;;;;;;28.33;7.18;;;;;;;8.12;100.00;99519.88;5097800;28;20424;-66
2021/05/04 07:46:07;;;;;;;24.15;5.57;;;;;;;8.20;100.00;99528.59;5101774;28;20024;-65
2021/05/04 07:48:33;;;;;;;22.77;5.70;;;;;;;8.18;100.00;99511.06;5100013;27;20050;-66
2021/05/04 07:50:59;;;;;;;25.58;5.90;;;;;;;8.15;100.00;99488.25;5101061;28;20497;-66
2021/05/04 07:53:24;;;;;;;23.98;5.75;;;;;;;8.07;100.00;99524.31;5103395;28;20019;-68
2021/05/04 07:55:50;;;;;;;23.30;4.97;;;;;;;8.07;100.00;99523.41;5104219;28;20026;-67
2021/05/04 07:58:15;;;;;;;22.58;5.32;;;;;;;8.10;100.00;99513.75;5101843;28;20043;-68
2021/05/04 08:00:41;;;;;;;22.42;4.90;;;;;;;8.18;100.00;99532.13;5102111;28;20386;-68
2021/05/04 08:03:07;;;;;;;23.23;5.30;;;;;;;8.24;100.00;99516.28;5101022;28;20032;-68
2021/05/04 08:05:32;;;;;;;22.08;4.65;;;;;;;8.32;100.00;99530.28;5103168;28;20080;-68
2021/05/04 08:07:57;;;;;;;23.38;5.13;;;;;;;8.32;100.00;99510.97;5100657;28;20073;-68
2021/05/04 08:10:23;;;;;;;20.63;3.72;;;;;;;8.37;97.36;99493.38;5104015;28;20023;-68
2021/05/04 08:12:48;;;;;;;20.40;4.22;;;;;;;8.38;95.04;99514.41;5101002;28;20485;-67
2021/05/04 08:15:18;;;;;;;19.08;3.92;;;;;;;8.26;97.82;99509.25;5104521;28;20027;-66
2021/05/04 08:17:49;;;;;;;16.05;3.40;;;;;;;8.07;100.00;99547.09;5101630;28;20424;-66
2021/05/04 08:20:15;;;;;;;20.55;4.53;;;;;;;7.79;100.00;99515.69;5097228;28;20056;-67
2021/05/04 08:22:40;;;;;;;23.85;4.18;;;;;;;7.73;100.00;99506.06;5104003;28;20034;-67
2021/05/04 08:25:06;;;;;;;22.20;4.20;;;;;;;7.66;100.00;99500.00;5102020;28;20020;-67
2021/05/04 08:27:31;;;;;;;20.88;4.22;;;;;;;7.62;100.00;99507.91;5102833;28;20421;-68
2021/05/04 08:29:57;;;;;;;20.77;4.35;;;;;;;7.68;100.00;99524.50;5103454;28;20032;-67
2021/05/04 08:32:22;;;;;;;23.90;5.00;;;;;;;7.62;100.00;99519.28;5101588;28;20486;-66
2021/05/04 08:34:47;;;;;;;20.27;4.20;;;;;;;7.59;100.00;99539.50;5104328;28;20024;-67
2021/05/04 08:37:13;;;;;;;22.10;4.80;;;;;;;7.59;100.00;99523.72;5100912;28;20016;-65
2021/05/04 08:39:38;;;;;;;23.95;5.38;;;;;;;7.57;100.00;99530.72;5104034;28;20068;-66
2021/05/04 08:42:04;;;;;;;24.33;5.47;;;;;;;7.58;100.00;99525.44;5095364;28;20051;-68
2021/05/04 08:44:30;;;;;;;25.23;5.70;;;;;;;7.64;100.00;99521.91;5097476;28;20347;-68
2021/05/04 08:46:55;;;;;;;23.65;5.20;;;;;;;7.75;100.00;99530.63;5094441;28;20085;-67
2021/05/04 08:49:21;;;;;;;22.10;5.10;;;;;;;7.97;100.00;99510.34;5101042;28;20028;-65
2021/05/04 08:51:48;;;;;;;25.23;5.05;;;;;;;8.09;100.00;99508.50;5101994;28;20040;-67
2021/05/04 08:54:15;;;;;;;21.85;4.68;;;;;;;8.20;100.00;99517.22;5099056;28;20020;-67
2021/05/04 08:56:41;;;;;;;17.35;3.63;;;;;;;8.03;100.00;99519.94;5101822;28;20028;-62
2021/05/04 08:59:07;;;;;;;20.05;4.10;;;;;;;7.95;100.00;99533.16;5096391;28;20157;-61
2021/05/04 09:01:32;;;;;;;19.88;4.10;;;;;;;7.81;100.00;99535.84;5102913;28;20076;-62
2021/05/04 09:04:02;;;;;;;22.40;4.53;;;;;;;7.58;100.00;99517.56;5096211;28;20477;-62
2021/05/04 09:06:33;;;;;;;22.48;4.78;;;;;;;7.42;100.00;99529.03;5101285;28;20351;-62
2021/05/04 09:14:34;;;;;;;27.05;6.25;;;;;;;7.96;100.00;99519.09;5099732;28;20222;-62
2021/05/04 09:19:56;;;;;;;24.75;5.43;;;;;;;8.15;100.00;99534.78;5100237;28;20035;-61
2021/05/04 09:22:39;;;;;;;22.85;5.45;;;;;;;8.17;100.00;99522.50;5099795;28;20024;-62
2021/05/04 09:25:07;;;;;;;23.77;5.35;;;;;;;8.29;100.00;99543.47;5097821;28;20089;-61
2021/05/04 09:27:33;;;;;;;25.63;5.40;;;;;;;8.74;100.00;99582.69;5101927;28;20023;-61
2021/05/04 09:29:59;;;;;;;23.90;4.90;;;;;;;8.81;94.23;99522.88;5099746;28;20043;-62
2021/05/04 09:32:28;;;;;;;23.85;5.18;;;;;;;9.08;97.58;99548.97;5099785;28;20478;-61
2021/05/04 09:35:02;;;;;;;22.63;4.93;;;;;;;9.10;93.53;99534.91;5097964;28;20359;-62
2021/05/04 09:37:36;;;;;;;24.60;5.35;;;;;;;9.13;91.20;99548.03;5100269;28;20058;-62
2021/05/04 09:40:20;;;;;;;25.15;5.72;;;;;;;8.95;90.11;99554.38;5099744;28;20032;-67
2021/05/04 09:42:46;;;;;;;23.90;5.20;;;;;;;8.55;96.14;99550.34;5097707;28;20424;-65
2021/05/04 09:45:23;;;;;;;26.25;5.95;;;;;;;8.26;100.00;99575.09;5100605;28;20042;-65
2021/05/04 09:48:16;;;;;;;25.52;6.18;;;;;;;8.02;100.00;99568.19;5100219;28;20360;-66
2021/05/04 09:51:02;;;;;;;29.23;8.43;;;;;;;7.85;100.00;99557.78;5101648;28;20462;-64
2021/05/04 09:56:05;;;;;;;27.67;10.10;;;;;;;9.23;100.00;99584.88;5096469;28;20059;-65
2021/05/04 09:58:42;;;;;;;26.92;9.30;;;;;;;9.50;89.83;99579.31;5101275;28;20028;-64
2021/05/04 10:01:11;;;;;;;27.25;9.77;;;;;;;9.55;92.98;99582.75;5102787;28;20031;-64
2021/05/04 10:03:38;;;;;;;25.20;8.30;;;;;;;9.72;90.18;99586.06;5101284;28;20028;-64
2021/05/04 10:06:05;;;;;;;29.33;8.98;;;;;;;10.82;84.15;99576.63;5104296;28;20046;-63
2021/05/04 10:08:32;;;;;;;22.83;6.22;;;;;;;11.21;73.38;99590.03;5101135;28;20028;-63
2021/05/04 10:11:09;;;;;;;26.48;6.30;;;;;;;10.59;71.19;99611.34;5103391;28;20498;-63
2021/05/04 10:13:36;;;;;;;24.13;6.38;;;;;;;9.67;73.78;99616.03;5097440;28;20028;-64
2021/05/04 10:16:03;;;;;;;23.48;6.93;;;;;;;9.30;73.77;99598.84;5106689;28;20093;-63
2021/05/04 10:18:30;;;;;;;26.52;7.43;;;;;;;9.13;76.15;99616.59;5100791;28;20105;-64
2021/05/04 10:20:58;;;;;;;25.63;7.53;;;;;;;8.91;78.92;99595.69;5104443;28;20024;-64
2021/05/04 10:23:26;;;;;;;25.23;7.35;;;;;;;8.73;79.16;99608.13;5104416;28;20089;-63
2021/05/04 10:25:59;;;;;;;25.00;7.88;;;;;;;8.38;81.79;99646.09;5102558;28;20074;-64
2021/05/04 10:28:37;;;;;;;28.20;8.45;;;;;;;7.97;89.43;99623.50;5101766;28;20059;-63
2021/05/04 10:31:05;;;;;;;25.35;8.60;;;;;;;7.75;91.33;99640.25;5104513;28;20581;-64
2021/05/04 10:33:33;;;;;;;27.10;9.13;;;;;;;7.81;92.76;99635.84;5102113;28;20115;-63
2021/05/04 10:36:00;;;;;;;26.58;8.35;;;;;;;7.95;92.77;99622.63;5098247;28;20028;-63
2021/05/04 10:38:26;;;;;;;24.92;7.80;;;;;;;7.99;89.31;99644.53;5099349;28;20028;-63
2021/05/04 10:41:00;;;;;;;25.02;8.13;;;;;;;8.09;88.96;99655.91;5104765;28;20030;-63
2021/05/04 10:43:25;;;;;;;24.20;7.53;;;;;;;8.26;85.44;99642.69;5099310;27;20470;-63
2021/05/04 10:45:59;;;;;;;26.00;8.27;;;;;;;8.54;80.99;99661.84;5101651;28;20106;-64
2021/05/04 10:48:41;;;;;;;23.95;8.88;;;;;;;8.38;83.58;99658.41;5100778;28;20393;-64
2021/05/04 10:51:17;;;;;;;24.17;8.27;;;;;;;8.07;85.14;99657.66;5100772;28;20039;-65
2021/05/04 10:53:52;;;;;;;24.38;8.00;;;;;;;7.98;85.10;99677.00;5095613;28;20020;-63
2021/05/04 10:56:29;;;;;;;28.08;9.73;;;;;;;7.83;91.00;99701.59;5094782;28;20453;-64
2021/05/04 10:58:55;;;;;;;23.35;8.38;;;;;;;7.98;88.89;99696.31;5098708;28;20028;-64
2021/05/04 11:01:21;;;;;;;20.08;6.47;;;;;;;7.88;80.37;99734.06;5098399;28;20431;-63
2021/05/04 11:03:47;;;;;;;21.50;7.88;;;;;;;7.59;88.23;99728.84;5096042;28;20033;-63
2021/05/04 11:06:35;;;;;;;21.38;7.95;;;;;;;7.49;86.72;99699.06;5100125;28;20028;-63
2021/05/04 11:09:12;;;;;;;20.15;8.45;;;;;;;7.70;81.53;99700.75;5095541;28;20394;-65
2021/05/04 11:11:41;;;;;;;20.17;8.70;;;;;;;8.01;82.44;99706.81;5097823;28;20020;-64
2021/05/04 11:14:06;;;;;;;21.92;9.23;;;;;;;9.92;78.38;99719.59;5096607;28;20467;-63
2021/05/04 11:16:36;;;;;;;20.25;7.95;;;;;;;10.84;67.17;99703.50;5094721;28;20038;-64
2021/05/04 11:19:10;;;;;;;21.77;8.15;;;;;;;10.55;68.40;99707.41;5096257;28;20035;-63
2021/05/04 11:21:58;;;;;;;22.08;8.10;;;;;;;9.85;67.74;99694.16;5098707;28;20517;-65
2021/05/04 11:24:37;;;;;;;20.55;7.47;;;;;;;9.74;68.37;99697.78;5098092;28;20032;-64
2021/05/04 11:27:05;;;;;;;20.38;7.35;;;;;;;9.83;65.94;99698.56;5099604;28;20458;-61
2021/05/04 11:29:33;;;;;;;19.52;6.57;;;;;;;9.61;63.59;99714.63;5096799;28;20020;-64
2021/05/04 11:32:18;;;;;;;20.25;6.80;;;;;;;9.42;65.25;99704.25;5102530;28;20028;-63
2021/05/04 11:34:50;;;;;;;20.42;7.30;;;;;;;9.23;65.89;99708.81;5093809;28;20017;-62
2021/05/04 11:37:22;;;;;;;21.85;8.20;;;;;;;8.86;68.36;99721.38;5097732;28;20034;-63